| time (UTC) | temp C | wind direction | speed KPH | gust KPH | rain 1hr cm | rain 24hr cm | rain mn cm | humidity % | barometer mb |
| 20260506044538 | 16 | 228 | 3.2 | 17.7 | 0.00 | 0.00 | 0.00 | 63 | 1011.5 |
| 20260506044028 | 16 | 233 | 1.6 | 17.7 | 0.00 | 0.00 | 0.00 | 62 | 1011.5 |
| 20260506043524 | 16 | 306 | 1.6 | 16.1 | 0.00 | 0.00 | 0.00 | 62 | 1011.5 |
| 20260506043024 | 16 | 0 | 1.6 | 14.5 | 0.00 | 0.00 | 0.00 | 61 | 1011.3 |
| 20260506042514 | 17 | 1 | 1.6 | 8.0 | 0.00 | 0.00 | 0.00 | 60 | 1011.3 |
| 20260506042008 | 17 | 2 | 1.6 | 9.7 | 0.00 | 0.00 | 0.00 | 60 | 1011.3 |
| 20260506041458 | 17 | 2 | 1.6 | 14.5 | 0.00 | 0.00 | 0.00 | 60 | 1012.7 |
| 20260506040928 | 17 | 2 | 1.6 | 9.7 | 0.00 | 0.00 | 0.00 | 60 | 1012.7 |
| 20260506035857 | 17 | 2 | 1.6 | 11.3 | 0.00 | 0.00 | 0.00 | 58 | 1012.3 |
| 20260506035347 | 17 | 2 | 1.6 | 11.3 | 0.00 | 0.00 | 0.00 | 58 | 1012.3 |
| 20260506034842 | 17 | 2 | 0.0 | 6.4 | 0.00 | 0.00 | 0.00 | 58 | 1012.3 |
| 20260506034324 | 18 | 2 | 0.0 | 4.8 | 0.00 | 0.00 | 0.00 | 57 | 1011.9 |
| 20260506033255 | 18 | 2 | 0.0 | 0.0 | 0.00 | 0.00 | 0.00 | 55 | 1011.9 |
| 20260506032748 | 18 | 2 | 0.0 | 1.6 | 0.00 | 0.00 | 0.00 | 55 | 1011.5 |
| 20260506032224 | 18 | 2 | 0.0 | 3.2 | 0.00 | 0.00 | 0.00 | 55 | 1011.5 |
| 20260506031718 | 18 | 2 | 1.6 | 12.9 | 0.00 | 0.00 | 0.00 | 54 | 1011.5 |
| 20260506031210 | 18 | 2 | 0.0 | 12.9 | 0.00 | 0.00 | 0.00 | 54 | 1012.4 |
| 20260506025656 | 19 | 4 | 0.0 | 1.6 | 0.00 | 0.00 | 0.00 | 51 | 1012.3 |
| 20260506025152 | 19 | 4 | 0.0 | 0.0 | 0.00 | 0.00 | 0.00 | 50 | 1012.3 |
| 20260506024654 | 19 | 4 | 0.0 | 1.6 | 0.00 | 0.00 | 0.00 | 48 | 1012.3 |
| 20260506024134 | 20 | 4 | 0.0 | 1.6 | 0.00 | 0.00 | 0.00 | 46 | 1011.8 |
| 20260506023626 | 20 | 4 | 0.0 | 0.0 | 0.00 | 0.00 | 0.00 | 44 | 1011.8 |
| 20260506022030 | 21 | 4 | 0.0 | 0.0 | 0.00 | 0.00 | 0.00 | 40 | 1011.5 |
| 20260506021526 | 21 | 4 | 0.0 | 0.0 | 0.00 | 0.00 | 0.00 | 40 | 1011.9 |
| 20260506021002 | 21 | 4 | 0.0 | 0.0 | 0.00 | 0.00 | 0.00 | 41 | 1011.9 |
| 20260506020454 | 22 | 4 | 0.0 | 0.0 | 0.00 | 0.00 | 0.00 | 40 | 1011.9 |
| 20260506015938 | 22 | 4 | 0.0 | 0.0 | 0.00 | 0.00 | 0.00 | 38 | 1011.7 |
| 20260506015411 | 22 | 4 | 0.0 | 0.0 | 0.00 | 0.00 | 0.00 | 38 | 1011.7 |
| 20260506014835 | 22 | 4 | 0.0 | 0.0 | 0.00 | 0.00 | 0.00 | 38 | 1011.7 |
| 20260506014332 | 22 | 4 | 0.0 | 0.0 | 0.00 | 0.00 | 0.00 | 36 | 1011.7 |
| 20260506013825 | 22 | 4 | 0.0 | 1.6 | 0.00 | 0.00 | 0.00 | 36 | 1011.7 |
| 20260506012747 | 22 | 4 | 0.0 | 6.4 | 0.00 | 0.00 | 0.00 | 34 | 1011.8 |
| 20260506012247 | 22 | 4 | 0.0 | 4.8 | 0.00 | 0.00 | 0.00 | 33 | 1011.8 |
| 20260506011743 | 22 | 4 | 0.0 | 1.6 | 0.00 | 0.00 | 0.00 | 33 | 1011.8 |
| 20260506011235 | 22 | 4 | 0.0 | 1.6 | 0.00 | 0.00 | 0.00 | 33 | 1011.6 |
| 20260506010216 | 22 | 4 | 0.0 | 6.4 | 0.00 | 0.00 | 0.00 | 37 | 1011.6 |
| 20260506005715 | 22 | 4 | 1.6 | 9.7 | 0.00 | 0.00 | 0.00 | 37 | 1011.6 |
| 20260506005216 | 23 | 4 | 3.2 | 9.7 | 0.00 | 0.00 | 0.00 | 37 | 1011.6 |
| 20260506004654 | 23 | 4 | 3.2 | 9.7 | 0.00 | 0.00 | 0.00 | 37 | 1011.6 |
| 20260506004133 | 23 | 4 | 3.2 | 9.7 | 0.00 | 0.00 | 0.00 | 35 | 1011.2 |
| 20260506003629 | 23 | 4 | 3.2 | 9.7 | 0.00 | 0.00 | 0.00 | 34 | 1011.2 |
| 20260506003126 | 23 | 4 | 4.8 | 9.7 | 0.00 | 0.00 | 0.00 | 33 | 1011.2 |
| 20260506002621 | 23 | 4 | 3.2 | 9.7 | 0.00 | 0.00 | 0.00 | 32 | 1011.0 |
| 20260506002121 | 23 | 4 | 1.6 | 6.4 | 0.00 | 0.00 | 0.00 | 31 | 1011.0 |
| 20260506001621 | 23 | 4 | 3.2 | 6.4 | 0.00 | 0.00 | 0.00 | 32 | 1010.7 |
| 20260506001117 | 23 | 4 | 1.6 | 8.0 | 0.00 | 0.00 | 0.00 | 32 | 1010.7 |
| 20260506000607 | 23 | 4 | 1.6 | 8.0 | 0.00 | 0.00 | 0.00 | 34 | 1010.7 |
| 20260506000105 | 23 | 4 | 1.6 | 9.7 | 0.00 | 0.00 | 0.00 | 33 | 1010.5 |
| 20260505235602 | 24 | 4 | 6.4 | 19.3 | 0.00 | 0.00 | 0.00 | 32 | 1010.5 |
| 20260505235100 | 24 | 4 | 9.7 | 19.3 | 0.00 | 0.00 | 0.00 | 31 | 1010.5 |
| 20260505234556 | 24 | 4 | 9.7 | 19.3 | 0.00 | 0.00 | 0.00 | 32 | 1010.5 |
| 20260505234056 | 25 | 4 | 6.4 | 19.3 | 0.00 | 0.00 | 0.00 | 31 | 1010.5 |
| 20260505233558 | 25 | 4 | 4.8 | 11.3 | 0.00 | 0.00 | 0.00 | 30 | 1010.5 |
| 20260505232553 | 25 | 4 | 0.0 | 8.0 | 0.00 | 0.00 | 0.00 | 28 | 1010.1 |
| 20260505232052 | 25 | 4 | 0.0 | 4.8 | 0.00 | 0.00 | 0.00 | 28 | 1010.1 |
| 20260505231543 | 26 | 4 | 1.6 | 4.8 | 0.00 | 0.00 | 0.00 | 28 | 1010.1 |
| 20260505231042 | 26 | 4 | 3.2 | 11.3 | 0.00 | 0.00 | 0.00 | 28 | 1010.1 |
| 20260505230543 | 25 | 4 | 3.2 | 11.3 | 0.00 | 0.00 | 0.00 | 27 | 1010.1 |
| 20260505230037 | 25 | 4 | 0.0 | 8.0 | 0.00 | 0.00 | 0.00 | 28 | 1010.0 |
| 20260505225523 | 25 | 4 | 0.0 | 1.6 | 0.00 | 0.00 | 0.00 | 27 | 1010.0 |
| 20260505225020 | 26 | 4 | 1.6 | 8.0 | 0.00 | 0.00 | 0.00 | 28 | 1010.0 |
| 20260505223459 | 26 | 4 | 3.2 | 9.7 | 0.00 | 0.00 | 0.00 | 26 | 1010.0 |
| 20260505222455 | 26 | 4 | 1.6 | 11.3 | 0.00 | 0.00 | 0.00 | 26 | 1009.6 |
| 20260505221952 | 26 | 4 | 0.0 | 6.4 | 0.00 | 0.00 | 0.00 | 25 | 1009.6 |
| 20260505221449 | 27 | 4 | 3.2 | 12.9 | 0.00 | 0.00 | 0.00 | 22 | 1009.1 |
| 20260505220917 | 28 | 4 | 6.4 | 12.9 | 0.00 | 0.00 | 0.00 | 22 | 1009.1 |
| 20260505220414 | 28 | 5 | 6.4 | 14.5 | 0.00 | 0.00 | 0.00 | 23 | 1009.1 |
| 20260505215907 | 28 | 4 | 4.8 | 14.5 | 0.00 | 0.00 | 0.00 | 23 | 1009.3 |
| 20260505215409 | 28 | 4 | 4.8 | 17.7 | 0.00 | 0.00 | 0.00 | 23 | 1009.3 |
| 20260505214906 | 28 | 4 | 1.6 | 17.7 | 0.00 | 0.00 | 0.00 | 25 | 1009.3 |
| 20260505214407 | 28 | 7 | 0.0 | 6.4 | 0.00 | 0.00 | 0.00 | 26 | 1009.2 |
| 20260505213907 | 27 | 7 | 1.6 | 11.3 | 0.00 | 0.00 | 0.00 | 25 | 1009.2 |
| 20260505213405 | 28 | 7 | 3.2 | 11.3 | 0.00 | 0.00 | 0.00 | 23 | 1009.2 |
| 20260505212855 | 28 | 7 | 3.2 | 12.9 | 0.00 | 0.00 | 0.00 | 26 | 1009.3 |
| 20260505210847 | 29 | 4 | 0.0 | 8.0 | 0.00 | 0.00 | 0.00 | 22 | 1009.1 |
| 20260505210337 | 29 | 4 | 3.2 | 11.3 | 0.00 | 0.00 | 0.00 | 24 | 1009.1 |
| 20260505205827 | 28 | 4 | 3.2 | 11.3 | 0.00 | 0.00 | 0.00 | 25 | 1009.1 |
| 20260505205327 | 28 | 4 | 3.2 | 9.7 | 0.00 | 0.00 | 0.00 | 23 | 1009.1 |
| 20260505204825 | 28 | 4 | 3.2 | 9.7 | 0.00 | 0.00 | 0.00 | 23 | 1009.1 |
| 20260505204321 | 28 | 4 | 6.4 | 17.7 | 0.00 | 0.00 | 0.00 | 24 | 1009.4 |
| 20260505203821 | 28 | 3 | 8.0 | 17.7 | 0.00 | 0.00 | 0.00 | 24 | 1009.4 |
| 20260505203316 | 27 | 6 | 4.8 | 12.9 | 0.00 | 0.00 | 0.00 | 25 | 1009.4 |
| 20260505202817 | 26 | 7 | 1.6 | 8.0 | 0.00 | 0.00 | 0.00 | 25 | 1009.1 |
| 20260505202307 | 27 | 7 | 1.6 | 6.4 | 0.00 | 0.00 | 0.00 | 23 | 1009.1 |
| 20260505201752 | 28 | 7 | 0.0 | 6.4 | 0.00 | 0.00 | 0.00 | 22 | 1009.1 |
| 20260505201251 | 29 | 7 | 0.0 | 6.4 | 0.00 | 0.00 | 0.00 | 22 | 1008.7 |
| 20260505200753 | 29 | 7 | 3.2 | 16.1 | 0.00 | 0.00 | 0.00 | 23 | 1008.7 |
| 20260505200221 | 30 | 7 | 4.8 | 16.1 | 0.00 | 0.00 | 0.00 | 23 | 1008.7 |
| 20260505194713 | 29 | 7 | 3.2 | 9.7 | 0.00 | 0.00 | 0.00 | 24 | 1009.0 |
| 20260505194157 | 28 | 7 | 4.8 | 9.7 | 0.00 | 0.00 | 0.00 | 26 | 1009.3 |
| 20260505193159 | 27 | 7 | 1.6 | 8.0 | 0.00 | 0.00 | 0.00 | 28 | 1009.3 |
| 20260505192646 | 28 | 7 | 1.6 | 8.0 | 0.00 | 0.00 | 0.00 | 27 | 1009.5 |
| 20260505192145 | 27 | 7 | 1.6 | 9.7 | 0.00 | 0.00 | 0.00 | 28 | 1009.5 |
| 20260505191638 | 27 | 7 | 3.2 | 9.7 | 0.00 | 0.00 | 0.00 | 26 | 1009.5 |
| 20260505191138 | 27 | 7 | 3.2 | 11.3 | 0.00 | 0.00 | 0.00 | 25 | 1009.5 |
| 20260505190129 | 26 | 0 | 4.8 | 12.9 | 0.00 | 0.00 | 0.00 | 29 | 1009.5 |
| 20260505185629 | 26 | 0 | 3.2 | 12.9 | 0.00 | 0.00 | 0.00 | 28 | 1009.9 |
| 20260505185123 | 26 | 0 | 0.0 | 11.3 | 0.00 | 0.00 | 0.00 | 28 | 1009.9 |
| 20260505184122 | 25 | 0 | 1.6 | 6.4 | 0.00 | 0.00 | 0.00 | 29 | 1009.7 |
| 20260505183623 | 26 | 0 | 1.6 | 8.0 | 0.00 | 0.00 | 0.00 | 27 | 1009.7 |
| 20260505183123 | 26 | 0 | 3.2 | 8.0 | 0.00 | 0.00 | 0.00 | 27 | 1009.7 |
| 20260505182609 | 27 | 0 | 4.8 | 9.7 | 0.00 | 0.00 | 0.00 | 26 | 1009.7 |
| 20260505182109 | 26 | 0 | 3.2 | 9.7 | 0.00 | 0.00 | 0.00 | 27 | 1009.7 |
| 20260505181608 | 26 | 0 | 3.2 | 9.7 | 0.00 | 0.00 | 0.00 | 27 | 1009.9 |
| 20260505181108 | 26 | 0 | 1.6 | 9.7 | 0.00 | 0.00 | 0.00 | 30 | 1009.9 |
| 20260505180606 | 25 | 0 | 0.0 | 3.2 | 0.00 | 0.00 | 0.00 | 30 | 1009.9 |
| 20260505180105 | 25 | 0 | 0.0 | 6.4 | 0.00 | 0.00 | 0.00 | 30 | 1010.0 |
| 20260505175546 | 25 | 0 | 1.6 | 8.0 | 0.00 | 0.00 | 0.00 | 30 | 1010.0 |
| 20260505175033 | 25 | 0 | 0.0 | 8.0 | 0.00 | 0.00 | 0.00 | 31 | 1010.0 |
| 20260505174521 | 24 | 0 | 0.0 | 6.4 | 0.00 | 0.00 | 0.00 | 33 | 1010.2 |
| 20260505174012 | 24 | 0 | 0.0 | 6.4 | 0.00 | 0.00 | 0.00 | 32 | 1010.2 |
| 20260505173458 | 23 | 0 | 0.0 | 4.8 | 0.00 | 0.00 | 0.00 | 35 | 1010.2 |
| 20260505172946 | 23 | 0 | 1.6 | 4.8 | 0.00 | 0.00 | 0.00 | 35 | 1010.2 |
| 20260505172437 | 23 | 0 | 0.0 | 4.8 | 0.00 | 0.00 | 0.00 | 36 | 1010.2 |
| 20260505171426 | 22 | 0 | 0.0 | 4.8 | 0.00 | 0.00 | 0.00 | 38 | 1010.6 |
| 20260505170920 | 22 | 0 | 0.0 | 1.6 | 0.00 | 0.00 | 0.00 | 41 | 1010.6 |
| 20260505170414 | 21 | 0 | 0.0 | 4.8 | 0.00 | 0.00 | 0.00 | 41 | 1010.6 |
| 20260505165910 | 21 | 0 | 0.0 | 6.4 | 0.00 | 0.00 | 0.00 | 42 | 1011.0 |
| 20260505165358 | 20 | 0 | 1.6 | 6.4 | 0.00 | 0.00 | 0.00 | 42 | 1011.0 |
| 20260505164850 | 20 | 0 | 1.6 | 6.4 | 0.00 | 0.00 | 0.00 | 42 | 1011.0 |
| 20260505164346 | 20 | 0 | 1.6 | 6.4 | 0.00 | 0.00 | 0.00 | 46 | 1011.2 |
| 20260505163834 | 19 | 0 | 1.6 | 8.0 | 0.00 | 0.00 | 0.00 | 47 | 1011.2 |
| 20260505163324 | 18 | 0 | 3.2 | 9.7 | 0.00 | 0.00 | 0.00 | 50 | 1011.2 |
| 20260505162306 | 17 | 0 | 1.6 | 9.7 | 0.00 | 0.00 | 0.00 | 55 | 1011.6 |
| 20260505160220 | 13 | 0 | 0.0 | 1.6 | 0.00 | 0.00 | 0.00 | 69 | 1011.8 |
| 20260505153120 | 9 | 0 | 0.0 | 1.6 | 0.00 | 0.00 | 0.00 | 85 | 1013.0 |
| 20260505152601 | 8 | 0 | 0.0 | 0.0 | 0.00 | 0.00 | 0.00 | 85 | 1013.0 |
| 20260505152102 | 8 | 0 | 0.0 | 0.0 | 0.00 | 0.00 | 0.00 | 85 | 1013.0 |
| 20260505151540 | 7 | 0 | 0.0 | 0.0 | 0.00 | 0.00 | 0.00 | 85 | 1012.3 |
| 20260505151035 | 7 | 0 | 0.0 | 0.0 | 0.00 | 0.00 | 0.00 | 85 | 1012.3 |
| 20260505150515 | 7 | 0 | 0.0 | 0.0 | 0.00 | 0.00 | 0.00 | 86 | 1012.3 |
| 20260505140148 | 5 | 0 | 0.0 | 0.0 | 0.00 | 0.00 | 0.00 | 85 | 1012.2 |
| 20260505124816 | 5 | 0 | 0.0 | 3.2 | 0.00 | 0.00 | 0.00 | 83 | 1011.2 |
| 20260505123759 | 5 | 0 | 0.0 | 0.0 | 0.00 | 0.00 | 0.00 | 82 | 1011.1 |
| 20260505123245 | 5 | 0 | 0.0 | 0.0 | 0.00 | 0.00 | 0.00 | 82 | 1011.1 |
| 20260505122730 | 5 | 0 | 0.0 | 0.0 | 0.00 | 0.00 | 0.00 | 82 | 1010.9 |
| 20260505122154 | 5 | 0 | 0.0 | 0.0 | 0.00 | 0.00 | 0.00 | 82 | 1010.9 |
| 20260505121055 | 6 | 0 | 0.0 | 0.0 | 0.00 | 0.00 | 0.00 | 81 | 1010.6 |
| 20260505120551 | 6 | 0 | 0.0 | 0.0 | 0.00 | 0.00 | 0.00 | 81 | 1010.6 |
| 20260505120031 | 6 | 0 | 0.0 | 0.0 | 0.00 | 0.00 | 0.00 | 82 | 1010.3 |
| 20260505115519 | 6 | 0 | 0.0 | 0.0 | 0.00 | 0.00 | 0.00 | 82 | 1010.3 |
| 20260505114455 | 6 | 0 | 0.0 | 0.0 | 0.00 | 0.00 | 0.00 | 81 | 1010.4 |
| 20260505113937 | 6 | 0 | 0.0 | 0.0 | 0.00 | 0.00 | 0.00 | 82 | 1010.4 |
| 20260505112852 | 6 | 0 | 0.0 | 0.0 | 0.00 | 0.00 | 0.00 | 80 | 1010.4 |
| 20260505111814 | 6 | 0 | 0.0 | 0.0 | 0.00 | 0.00 | 0.00 | 81 | 1010.4 |
| 20260505111303 | 6 | 0 | 0.0 | 0.0 | 0.00 | 0.00 | 0.00 | 80 | 1009.8 |
| 20260505110253 | 7 | 0 | 0.0 | 0.0 | 0.00 | 0.00 | 0.00 | 79 | 1009.8 |
| 20260505102103 | 8 | 0 | 0.0 | 0.0 | 0.00 | 0.00 | 0.00 | 76 | 1009.5 |
| 20260505101555 | 8 | 0 | 0.0 | 0.0 | 0.00 | 0.00 | 0.00 | 76 | 1009.0 |
| 20260505101026 | 8 | 0 | 0.0 | 6.4 | 0.00 | 0.00 | 0.00 | 74 | 1009.0 |
| 20260505095453 | 9 | 0 | 0.0 | 0.0 | 0.00 | 0.00 | 0.00 | 72 | 1008.7 |
| 20260505094933 | 9 | 0 | 0.0 | 0.0 | 0.00 | 0.00 | 0.00 | 72 | 1008.7 |
| 20260505094414 | 10 | 0 | 0.0 | 0.0 | 0.00 | 0.00 | 0.00 | 72 | 1008.5 |
| 20260505093905 | 10 | 0 | 0.0 | 0.0 | 0.00 | 0.00 | 0.00 | 72 | 1008.5 |
| 20260505093349 | 10 | 0 | 0.0 | 0.0 | 0.00 | 0.00 | 0.00 | 71 | 1008.5 |
| 20260505092844 | 10 | 0 | 0.0 | 9.7 | 0.00 | 0.00 | 0.00 | 71 | 1008.5 |
| 20260505091824 | 10 | 2 | 0.0 | 1.6 | 0.00 | 0.00 | 0.00 | 74 | 1008.5 |
| 20260505091317 | 10 | 2 | 0.0 | 0.0 | 0.00 | 0.00 | 0.00 | 74 | 1008.3 |
| 20260505090809 | 10 | 2 | 0.0 | 6.4 | 0.00 | 0.00 | 0.00 | 74 | 1008.3 |
| 20260505090305 | 10 | 2 | 0.0 | 6.4 | 0.00 | 0.00 | 0.00 | 74 | 1008.3 |
| 20260505085752 | 10 | 2 | 0.0 | 6.4 | 0.00 | 0.00 | 0.00 | 74 | 1008.3 |
| 20260505085236 | 10 | 2 | 0.0 | 6.4 | 0.00 | 0.00 | 0.00 | 74 | 1008.3 |
| 20260505084728 | 10 | 2 | 0.0 | 8.0 | 0.00 | 0.00 | 0.00 | 72 | 1008.3 |
| 20260505084208 | 10 | 2 | 0.0 | 8.0 | 0.00 | 0.00 | 0.00 | 72 | 1008.3 |
| 20260505083650 | 10 | 2 | 0.0 | 0.0 | 0.00 | 0.00 | 0.00 | 70 | 1008.3 |
| 20260505083143 | 10 | 2 | 0.0 | 0.0 | 0.00 | 0.00 | 0.00 | 71 | 1008.3 |
| 20260505082623 | 10 | 2 | 0.0 | 11.3 | 0.00 | 0.00 | 0.00 | 71 | 1008.3 |
| 20260505081600 | 10 | 4 | 0.0 | 0.0 | 0.00 | 0.00 | 0.00 | 68 | 1008.0 |
| 20260505081050 | 10 | 4 | 0.0 | 9.7 | 0.00 | 0.00 | 0.00 | 70 | 1008.0 |
| 20260505080545 | 11 | 4 | 1.6 | 9.7 | 0.00 | 0.00 | 0.00 | 72 | 1008.0 |
| 20260505075530 | 11 | 6 | 0.0 | 1.6 | 0.00 | 0.00 | 0.00 | 69 | 1008.0 |
| 20260505075027 | 11 | 6 | 0.0 | 4.8 | 0.00 | 0.00 | 0.00 | 70 | 1008.0 |
| 20260505074510 | 11 | 6 | 0.0 | 4.8 | 0.00 | 0.00 | 0.00 | 70 | 1007.9 |
| 20260505073956 | 11 | 6 | 0.0 | 8.0 | 0.00 | 0.00 | 0.00 | 71 | 1007.9 |
| 20260505073454 | 11 | 6 | 0.0 | 8.0 | 0.00 | 0.00 | 0.00 | 70 | 1007.9 |
| 20260505072916 | 11 | 7 | 0.0 | 0.0 | 0.00 | 0.00 | 0.00 | 69 | 1007.9 |
| 20260505072411 | 11 | 7 | 0.0 | 4.8 | 0.00 | 0.00 | 0.00 | 68 | 1007.9 |
| 20260505071407 | 11 | 7 | 0.0 | 0.0 | 0.00 | 0.00 | 0.00 | 67 | 1007.9 |
| 20260505070855 | 11 | 7 | 0.0 | 0.0 | 0.00 | 0.00 | 0.00 | 67 | 1007.9 |
| 20260505070346 | 11 | 7 | 0.0 | 0.0 | 0.00 | 0.00 | 0.00 | 67 | 1007.9 |
| 20260505065836 | 11 | 7 | 0.0 | 6.4 | 0.00 | 0.00 | 0.00 | 68 | 1007.7 |
| 20260505065326 | 11 | 7 | 0.0 | 6.4 | 0.00 | 0.00 | 0.00 | 68 | 1007.7 |
| 20260505064820 | 11 | 7 | 0.0 | 0.0 | 0.00 | 0.00 | 0.00 | 68 | 1007.7 |
| 20260505064318 | 11 | 7 | 0.0 | 0.0 | 0.00 | 0.00 | 0.00 | 67 | 1007.6 |
| 20260505063808 | 11 | 7 | 0.0 | 0.0 | 0.00 | 0.00 | 0.00 | 67 | 1007.6 |
| 20260505063302 | 11 | 7 | 0.0 | 1.6 | 0.00 | 0.00 | 0.00 | 67 | 1007.6 |
| 20260505062724 | 11 | 7 | 0.0 | 1.6 | 0.00 | 0.00 | 0.00 | 66 | 1007.7 |
| 20260505062156 | 11 | 7 | 0.0 | 0.0 | 0.00 | 0.00 | 0.00 | 66 | 1007.7 |
| 20260505061648 | 11 | 7 | 0.0 | 4.8 | 0.00 | 0.00 | 0.00 | 65 | 1007.7 |
| 20260505060634 | 12 | 7 | 0.0 | 3.2 | 0.00 | 0.00 | 0.00 | 64 | 1008.0 |
| 20260505060113 | 12 | 7 | 0.0 | 3.2 | 0.00 | 0.00 | 0.00 | 63 | 1008.0 |
| 20260505055554 | 12 | 7 | 0.0 | 0.0 | 0.00 | 0.00 | 0.00 | 64 | 1008.0 |
| 20260505055046 | 12 | 7 | 0.0 | 0.0 | 0.00 | 0.00 | 0.00 | 64 | 1008.0 |
| 20260505054538 | 11 | 7 | 0.0 | 4.8 | 0.00 | 0.00 | 0.00 | 63 | 1008.0 |
| 20260505054018 | 11 | 7 | 0.0 | 4.8 | 0.00 | 0.00 | 0.00 | 63 | 1008.0 |
| 20260505053510 | 11 | 7 | 0.0 | 4.8 | 0.00 | 0.00 | 0.00 | 62 | 1008.0 |
| 20260505052944 | 11 | 7 | 0.0 | 4.8 | 0.00 | 0.00 | 0.00 | 61 | 1008.0 |
| 20260505052442 | 12 | 7 | 0.0 | 0.0 | 0.00 | 0.00 | 0.00 | 61 | 1008.0 |
| 20260505051924 | 12 | 7 | 0.0 | 0.0 | 0.00 | 0.00 | 0.00 | 60 | 1008.0 |
| 20260505051417 | 12 | 7 | 0.0 | 1.6 | 0.00 | 0.00 | 0.00 | 60 | 1008.8 |
| 20260505050350 | 12 | 7 | 0.0 | 0.0 | 0.00 | 0.00 | 0.00 | 59 | 1008.8 |